aviador You're here:

YBBN Decoded Metar

BRISBANE in AUSTRALIA
Report Time2017-05-25 01:00:00
UTC Time2017-05-25 01:17:09
Flight Rules vfr VFR
Wind140° at 09 kt
W.Decomp.*RWY 14: 8.8 kt HW 1.7 kt LCW
RWY 19: 4.4 kt HW 7.9 kt LCW
W.Rank140° ranks 26
Current wind is above 140° avg. (7.7)
Visibility9999 m
Phenomena:N/A
Clouds:Few 037 Hf
Expected CloudBase > 4,000 ft AGL from Temp-Dew spread
CeilingNone
Temp23°C (ISA +8)
Dew Point13°C (53% RH)
AAT20.7°C
QNH1018 hPa
Density Alt984 ft
Elevation16 ft
Report Wrong Elevation
Raw Report
METAR YBBN 250100Z 14009KT 9999 FEW037 23/13 Q1018 NOSIG=

Extra information for YBBN:More info

Metar Taf Metar & Taf Last 4 Metars F.Rules Stats Wind Profile Meteogram Temp Stats Airport Information Weather charts Add Link Nearby VenuesMetar ALERT Operation Metar Decoded Social comments